Time;durP1;ratioP1;P1;durP2;ratioP2;P2;SDS_P1;SDS_P2;PMS_P1;PMS_P2;Temp;Humidity;BMP_temperature;BMP_pressure;BME280_temperature;BME280_humidity;BME280_pressure;Samples;Min_cycle;Max_cycle;Signal;HPM_P1;HPM_P2
2022/07/24 00:02:45;;;;;;;8.38;3.85;;;;;;;14.38;100.00;101909.06;10462157;28;20052;-68
2022/07/24 00:07:45;;;;;;;5.97;4.03;;;;;;;14.28;100.00;101899.53;10461992;28;20116;-68
2022/07/24 00:12:46;;;;;;;9.63;4.15;;;;;;;14.30;100.00;101915.88;10463071;28;20029;-67
2022/07/24 00:17:46;;;;;;;6.93;4.25;;;;;;;14.26;100.00;101918.34;10461802;28;20377;-68
2022/07/24 00:22:47;;;;;;;5.43;4.60;;;;;;;14.21;100.00;101914.63;10462828;28;20037;-68
2022/07/24 00:27:47;;;;;;;5.30;4.20;;;;;;;14.12;100.00;101917.00;10462373;28;20440;-68
2022/07/24 00:32:48;;;;;;;6.85;4.35;;;;;;;14.04;100.00;101914.66;10461447;28;20366;-68
2022/07/24 00:37:48;;;;;;;7.85;4.85;;;;;;;13.96;100.00;101912.31;10460679;28;20452;-62
2022/07/24 00:42:49;;;;;;;7.03;5.05;;;;;;;13.78;100.00;101878.22;10462314;28;20047;-68
2022/07/24 00:47:49;;;;;;;7.03;4.35;;;;;;;13.87;100.00;101911.84;10460897;28;20040;-68
2022/07/24 00:52:50;;;;;;;8.27;5.20;;;;;;;13.79;100.00;101899.28;10454519;28;20103;-68
2022/07/24 00:57:50;;;;;;;8.98;6.07;;;;;;;13.79;100.00;101895.66;10442308;28;20029;-68
2022/07/24 01:02:51;;;;;;;14.30;5.47;;;;;;;13.76;100.00;101894.25;10457876;28;20045;-68
2022/07/24 01:07:51;;;;;;;5.95;5.35;;;;;;;13.73;100.00;101892.81;10441071;28;20489;-68
2022/07/24 01:12:52;;;;;;;7.47;5.20;;;;;;;13.70;100.00;101876.75;10460015;28;20048;-68
2022/07/24 01:17:52;;;;;;;6.03;5.07;;;;;;;13.67;100.00;101881.94;10442776;28;20033;-67
2022/07/24 01:22:53;;;;;;;6.20;5.32;;;;;;;13.58;100.00;101883.41;10459331;28;20094;-67
2022/07/24 01:27:53;;;;;;;7.15;5.75;;;;;;;13.51;100.00;101878.03;10458876;28;20041;-68
2022/07/24 01:32:54;;;;;;;8.48;5.50;;;;;;;13.48;100.00;101865.56;10458806;28;20079;-68
2022/07/24 01:37:54;;;;;;;7.30;4.75;;;;;;;13.45;100.00;101868.81;10439738;28;20045;-67
2022/07/24 01:42:55;;;;;;;6.50;5.30;;;;;;;13.44;100.00;101864.38;10441227;28;20074;-67
2022/07/24 01:47:55;;;;;;;7.20;5.38;;;;;;;13.40;100.00;101862.38;10459581;28;20044;-68
2022/07/24 01:52:56;;;;;;;6.50;5.63;;;;;;;13.43;100.00;101870.16;10459290;28;20037;-68
2022/07/24 01:57:56;;;;;;;7.53;6.00;;;;;;;13.33;100.00;101865.28;10458202;28;20041;-69
2022/07/24 02:02:57;;;;;;;11.93;5.95;;;;;;;13.40;100.00;101867.91;10455951;28;20052;-68
2022/07/24 02:07:58;;;;;;;9.40;5.38;;;;;;;13.39;100.00;101869.81;10439971;28;20044;-67
2022/07/24 02:12:59;;;;;;;8.07;5.28;;;;;;;13.32;100.00;101855.31;10457027;28;20041;-65
2022/07/24 02:18:00;;;;;;;7.22;5.30;;;;;;;13.39;100.00;101852.38;10459446;28;20114;-67
2022/07/24 02:23:00;;;;;;;8.07;5.60;;;;;;;13.36;100.00;101853.72;10490253;28;20056;-68
2022/07/24 02:28:00;;;;;;;6.95;5.93;;;;;;;13.31;100.00;101857.25;10456951;28;20499;-68
2022/07/24 02:33:01;;;;;;;8.00;6.03;;;;;;;13.30;100.00;101847.25;10457235;28;20570;-68
2022/07/24 02:38:01;;;;;;;8.70;5.93;;;;;;;13.28;100.00;101854.09;10457773;28;20033;-68
2022/07/24 02:43:02;;;;;;;8.68;5.53;;;;;;;13.23;100.00;101846.56;10465703;28;20467;-68
2022/07/24 02:48:03;;;;;;;9.07;6.05;;;;;;;13.20;100.00;101843.44;10448057;28;20041;-68
2022/07/24 02:53:03;;;;;;;9.98;5.82;;;;;;;13.17;100.00;101844.78;10465770;28;20033;-68
2022/07/24 02:58:04;;;;;;;6.70;5.88;;;;;;;13.12;100.00;101834.47;10463029;28;20029;-68
2022/07/24 03:03:04;;;;;;;8.40;6.07;;;;;;;13.09;100.00;101843.25;10464255;28;20041;-64
2022/07/24 03:08:05;;;;;;;8.15;6.22;;;;;;;13.10;100.00;101844.94;10465561;28;20230;-67
2022/07/24 03:13:05;;;;;;;8.07;6.15;;;;;;;13.12;100.00;101845.53;10464156;28;20060;-69
2022/07/24 03:18:06;;;;;;;9.88;6.30;;;;;;;13.15;100.00;101835.03;10422332;28;20490;-69
2022/07/24 03:23:06;;;;;;;7.88;5.93;;;;;;;13.16;100.00;101836.72;10437554;28;20048;-68
2022/07/24 03:28:07;;;;;;;8.93;5.63;;;;;;;13.15;100.00;101829.50;10464314;28;20072;-69
2022/07/24 03:33:07;;;;;;;8.02;6.68;;;;;;;13.15;100.00;101823.97;10464574;28;20048;-67
2022/07/24 03:38:08;;;;;;;8.45;6.10;;;;;;;13.15;100.00;101816.53;10463236;28;20025;-69
2022/07/24 03:43:08;;;;;;;8.90;6.35;;;;;;;13.15;100.00;101823.97;10462582;28;20086;-69
2022/07/24 03:48:09;;;;;;;9.05;6.55;;;;;;;13.15;100.00;101808.25;10445115;28;20048;-68
2022/07/24 03:53:09;;;;;;;10.07;6.22;;;;;;;13.22;100.00;101816.38;10460995;28;20132;-69
2022/07/24 03:58:10;;;;;;;7.78;6.47;;;;;;;13.31;100.00;101815.75;10463108;28;20048;-69
2022/07/24 04:03:10;;;;;;;11.82;7.28;;;;;;;13.44;100.00;101811.81;10460327;28;20044;-69
2022/07/24 04:08:11;;;;;;;10.05;5.85;;;;;;;13.58;100.00;101805.94;10462019;28;20037;-69
2022/07/24 04:13:11;;;;;;;8.20;6.43;;;;;;;13.74;100.00;101807.88;10462794;28;20493;-70
2022/07/24 04:18:11;;;;;;;8.20;6.60;;;;;;;13.88;100.00;101792.59;10464011;28;20396;-69
2022/07/24 04:23:12;;;;;;;9.23;6.50;;;;;;;13.98;100.00;101782.78;10460710;28;20037;-69
2022/07/24 04:28:13;;;;;;;6.78;5.88;;;;;;;14.09;100.00;101781.81;10460920;28;20041;-70
2022/07/24 04:33:13;;;;;;;8.38;6.28;;;;;;;14.10;100.00;101772.41;10462056;28;20033;-69
2022/07/24 04:38:14;;;;;;;8.73;5.65;;;;;;;14.22;100.00;101778.69;10460161;28;20052;-69
2022/07/24 04:43:14;;;;;;;9.43;5.95;;;;;;;14.27;100.00;101781.50;10459442;28;20064;-70
2022/07/24 04:48:15;;;;;;;7.43;5.63;;;;;;;14.29;100.00;101790.41;10460278;28;20424;-69
2022/07/24 04:53:15;;;;;;;9.85;6.05;;;;;;;14.32;100.00;101789.03;10458750;28;20025;-70
2022/07/24 04:58:16;;;;;;;7.00;5.68;;;;;;;14.45;100.00;101787.81;10460064;28;20040;-71
2022/07/24 05:03:16;;;;;;;7.03;5.40;;;;;;;14.61;100.00;101786.94;10439822;28;20052;-69
2022/07/24 05:08:16;;;;;;;6.68;4.80;;;;;;;14.87;100.00;101785.28;10458804;28;20041;-69
2022/07/24 05:13:17;;;;;;;5.75;5.07;;;;;;;15.18;100.00;101782.00;10458583;28;20029;-69
2022/07/24 05:18:18;;;;;;;6.60;4.88;;;;;;;15.39;100.00;101766.34;10458569;28;20057;-68
2022/07/24 05:23:19;;;;;;;8.65;4.88;;;;;;;15.56;100.00;101768.97;10459956;28;20033;-69
2022/07/24 05:28:20;;;;;;;7.72;4.88;;;;;;;15.65;100.00;101770.19;10458268;28;20037;-68
2022/07/24 05:33:20;;;;;;;7.88;4.78;;;;;;;15.76;100.00;101771.09;10448416;28;20045;-68
2022/07/24 05:38:21;;;;;;;7.57;4.80;;;;;;;15.90;100.00;101764.81;10417581;28;20036;-69
2022/07/24 05:43:21;;;;;;;6.40;4.53;;;;;;;16.04;100.00;101753.19;10417979;28;20044;-69
2022/07/24 05:48:22;;;;;;;5.13;4.50;;;;;;;16.16;100.00;101762.16;10457367;28;20033;-69
2022/07/24 05:53:22;;;;;;;6.47;4.90;;;;;;;16.09;100.00;101751.28;10456691;28;20514;-69
2022/07/24 05:58:23;;;;;;;6.40;5.40;;;;;;;15.98;100.00;101738.47;10455255;28;20055;-67
2022/07/24 06:03:23;;;;;;;8.90;5.82;;;;;;;16.42;100.00;101732.53;10455485;28;20041;-68
2022/07/24 06:08:24;;;;;;;10.20;5.25;;;;;;;16.92;100.00;101721.84;10438713;28;20067;-69
2022/07/24 06:13:24;;;;;;;8.68;4.88;;;;;;;17.38;100.00;101726.56;10458440;28;20029;-68
2022/07/24 06:18:25;;;;;;;7.57;4.60;;;;;;;17.97;100.00;101716.75;10457490;28;20033;-69
2022/07/24 06:23:25;;;;;;;8.07;5.22;;;;;;;18.42;100.00;101717.66;10456161;28;20049;-69
2022/07/24 06:28:26;;;;;;;10.40;6.05;;;;;;;18.75;100.00;101711.34;10457993;28;20037;-70
2022/07/24 06:33:26;;;;;;;7.95;5.78;;;;;;;18.79;100.00;101711.63;10456766;28;20041;-68
2022/07/24 06:38:27;;;;;;;9.05;6.60;;;;;;;18.72;100.00;101711.06;10437758;28;20029;-69
2022/07/24 06:43:27;;;;;;;8.32;5.47;;;;;;;19.01;100.00;101719.53;10458814;28;20127;-68
2022/07/24 06:48:31;;;;;;;7.00;5.80;;;;;;;19.42;100.00;101707.19;10457798;28;20029;-69
2022/07/24 06:53:32;;;;;;;7.55;5.90;;;;;;;19.68;100.00;101705.00;10455546;28;20120;-70
2022/07/24 06:58:32;;;;;;;10.40;5.80;;;;;;;20.02;100.00;101709.66;10457894;28;20393;-70
2022/07/24 07:03:33;;;;;;;9.50;6.88;;;;;;;20.10;100.00;101717.38;10456945;28;20086;-69
2022/07/24 07:08:33;;;;;;;8.75;6.78;;;;;;;20.24;100.00;101712.72;10458049;28;20052;-69
2022/07/24 07:13:34;;;;;;;10.77;6.97;;;;;;;20.34;100.00;101723.78;10458055;28;20091;-69
2022/07/24 07:18:36;;;;;;;8.68;6.85;;;;;;;20.14;100.00;101727.66;10457775;28;20043;-69
2022/07/24 07:23:36;;;;;;;11.23;6.90;;;;;;;20.34;100.00;101720.16;10456858;28;20079;-69
2022/07/24 07:28:37;;;;;;;11.65;7.22;;;;;;;20.72;100.00;101714.63;10459806;28;20059;-70
2022/07/24 07:33:37;;;;;;;10.18;7.78;;;;;;;21.03;100.00;101711.34;10464703;28;20037;-69
2022/07/24 07:38:38;;;;;;;10.95;8.50;;;;;;;21.14;100.00;101713.66;10464084;28;20043;-70
2022/07/24 07:43:38;;;;;;;11.48;8.07;;;;;;;21.21;100.00;101704.88;10464607;28;20044;-70
2022/07/24 07:48:39;;;;;;;10.38;8.02;;;;;;;21.55;100.00;101707.34;10464989;28;20040;-64
2022/07/24 07:53:40;;;;;;;11.50;9.18;;;;;;;22.00;100.00;101703.16;10463714;28;20036;-70
2022/07/24 07:58:40;;;;;;;17.55;9.85;;;;;;;22.02;100.00;101710.09;10461650;28;20056;-70
2022/07/24 08:03:41;;;;;;;13.63;10.80;;;;;;;22.23;100.00;101699.31;10460659;28;20041;-71
2022/07/24 08:08:41;;;;;;;14.88;9.93;;;;;;;22.66;100.00;101686.88;10462483;28;20101;-70
2022/07/24 08:13:42;;;;;;;12.15;9.63;;;;;;;23.25;100.00;101689.63;10464359;28;20048;-70
2022/07/24 08:18:42;;;;;;;12.15;10.00;;;;;;;23.86;100.00;101673.94;10462932;28;20037;-70
2022/07/24 08:23:43;;;;;;;15.20;10.65;;;;;;;23.68;100.00;101675.00;10462229;28;20041;-71
2022/07/24 08:28:43;;;;;;;13.82;10.70;;;;;;;23.12;100.00;101686.59;10462727;28;20037;-70
2022/07/24 08:33:44;;;;;;;17.67;10.52;;;;;;;23.47;100.00;101677.53;10461812;28;20048;-70
2022/07/24 08:38:44;;;;;;;15.90;10.52;;;;;;;23.74;100.00;101674.53;10460315;28;20037;-70
2022/07/24 08:43:44;;;;;;;12.02;9.88;;;;;;;23.83;98.63;101671.75;10459982;28;20040;-67
2022/07/24 08:48:45;;;;;;;12.15;7.75;;;;;;;23.92;98.48;101664.19;10462111;28;20055;-71
2022/07/24 08:53:47;;;;;;;11.13;6.47;;;;;;;24.23;94.45;101668.09;10458964;28;20122;-72
2022/07/24 08:58:47;;;;;;;8.52;5.43;;;;;;;24.47;92.41;101662.78;10461584;28;20025;-76
2022/07/24 09:03:48;;;;;;;8.68;5.40;;;;;;;24.87;91.68;101664.69;10460118;28;20060;-72
2022/07/24 09:09:03;;;;;;;8.07;4.32;;;;;;;25.12;83.80;101652.53;10461053;28;20095;-72
2022/07/24 09:19:22;;;;;;;7.88;3.42;;;;;;;25.25;82.66;101647.06;10460580;28;20041;-70
2022/07/24 09:24:23;;;;;;;4.47;3.65;;;;;;;25.02;83.82;101652.88;10460692;28;20041;-73
2022/07/24 09:29:24;;;;;;;7.50;3.28;;;;;;;24.80;84.47;101653.91;10458231;28;20597;-71
2022/07/24 09:34:28;;;;;;;4.53;3.35;;;;;;;25.17;83.78;101648.69;10457560;28;20041;-71
2022/07/24 09:39:32;;;;;;;4.53;3.17;;;;;;;25.69;84.64;101659.00;10459637;28;20040;-72
2022/07/24 09:44:32;;;;;;;2.95;2.17;;;;;;;26.52;78.48;101641.41;10457708;28;20041;-70
2022/07/24 09:49:33;;;;;;;3.75;2.72;;;;;;;26.51;76.93;101636.09;10456152;28;20508;-71
2022/07/24 09:54:35;;;;;;;5.65;2.40;;;;;;;26.20;77.67;101637.34;10457538;28;20058;-71
2022/07/24 09:59:35;;;;;;;3.88;2.72;;;;;;;25.88;78.39;101639.69;10459128;28;20033;-71
2022/07/24 10:04:36;;;;;;;3.53;2.47;;;;;;;25.80;76.98;101640.53;10457097;28;20087;-71
2022/07/24 10:09:38;;;;;;;5.40;2.60;;;;;;;26.13;75.06;101626.59;10458326;28;20052;-71
2022/07/24 10:14:39;;;;;;;3.95;2.22;;;;;;;26.46;76.33;101616.53;10458190;28;20037;-70
2022/07/24 10:19:50;;;;;;;2.70;2.17;;;;;;;26.94;74.27;101609.50;10459078;28;20108;-70
2022/07/24 10:24:57;;;;;;;2.80;2.30;;;;;;;27.09;73.37;101606.00;10457889;28;20109;-70
2022/07/24 10:29:59;;;;;;;3.10;2.30;;;;;;;27.11;71.72;101603.63;10457042;28;20048;-71
2022/07/24 10:35:17;;;;;;;3.22;2.35;;;;;;;27.46;71.11;101608.09;10458909;28;20519;-71
2022/07/24 10:40:40;;;;;;;4.20;2.03;;;;;;;27.44;68.25;101591.47;10457096;28;20052;-72
2022/07/24 10:45:48;;;;;;;4.43;2.30;;;;;;;27.75;68.06;101609.84;10414700;28;20049;-72
2022/07/24 10:51:01;;;;;;;4.78;2.38;;;;;;;28.51;65.92;101591.25;10421402;28;20060;-69
2022/07/24 10:56:24;;;;;;;3.97;2.00;;;;;;;28.61;64.28;101589.06;10458900;28;20072;-71
2022/07/24 11:01:32;;;;;;;2.20;1.77;;;;;;;28.68;68.67;101594.94;10457963;28;20083;-69
2022/07/24 11:06:40;;;;;;;3.15;2.15;;;;;;;28.77;61.87;101570.94;10464735;28;20037;-72
2022/07/24 11:11:42;;;;;;;4.30;2.17;;;;;;;28.67;61.30;101585.63;10460703;28;20033;-71
2022/07/24 11:16:42;;;;;;;2.30;1.92;;;;;;;28.77;62.93;101593.63;10462891;28;20040;-72
2022/07/24 11:21:46;;;;;;;2.80;2.17;;;;;;;28.99;62.59;101580.03;10435617;28;20044;-71
2022/07/24 11:26:54;;;;;;;4.15;2.38;;;;;;;29.10;62.29;101594.47;10423148;28;20041;-71
2022/07/24 11:32:01;;;;;;;5.55;2.40;;;;;;;28.48;61.47;101583.41;10421952;28;20037;-71
2022/07/24 11:37:02;;;;;;;4.47;2.40;;;;;;;27.80;62.61;101580.50;10446304;28;20409;-71
2022/07/24 11:42:07;;;;;;;4.53;2.42;;;;;;;28.15;63.59;101590.16;10462893;28;20028;-71
2022/07/24 11:47:16;;;;;;;5.35;2.30;;;;;;;27.78;63.43;101575.19;10461902;28;20100;-72
2022/07/24 11:52:18;;;;;;;3.65;2.05;;;;;;;27.91;64.18;101579.69;10462227;28;20053;-72
2022/07/24 11:57:39;;;;;;;3.80;2.20;;;;;;;29.41;60.72;101553.16;10462366;28;20208;-71
2022/07/24 12:02:44;;;;;;;4.72;2.33;;;;;;;29.63;59.48;101555.34;10462312;28;20044;-71
2022/07/24 12:07:45;;;;;;;4.70;2.37;;;;;;;30.21;57.46;101540.44;10462816;28;20120;-73
2022/07/24 12:12:45;;;;;;;2.92;2.08;;;;;;;30.97;58.49;101542.81;10460759;28;20455;-70
2022/07/24 12:18:02;;;;;;;3.05;2.20;;;;;;;30.48;55.31;101532.91;10445838;28;20461;-71
2022/07/24 12:23:06;;;;;;;6.63;2.10;;;;;;;28.75;57.71;101527.97;10460958;28;20041;-71
2022/07/24 12:28:17;;;;;;;5.15;2.50;;;;;;;29.29;58.67;101531.38;10460838;28;20145;-71
2022/07/24 12:33:17;;;;;;;4.85;1.90;;;;;;;30.63;56.96;101525.47;10460446;28;20061;-72
2022/07/24 12:38:34;;;;;;;3.53;1.90;;;;;;;31.53;54.86;101499.47;10461736;28;20045;-71
2022/07/24 12:43:56;;;;;;;3.78;2.17;;;;;;;32.72;50.50;101490.41;10461757;28;20355;-71
2022/07/24 12:49:03;;;;;;;2.63;1.98;;;;;;;33.37;49.96;101482.41;10445745;28;20068;-72
2022/07/24 12:54:04;;;;;;;4.30;1.90;;;;;;;33.63;48.97;101491.97;10434179;28;20119;-71
2022/07/24 12:59:06;;;;;;;3.25;1.85;;;;;;;33.94;47.94;101471.34;10440782;28;20039;-72
2022/07/24 13:04:08;;;;;;;2.88;2.22;;;;;;;33.84;45.18;101460.69;10438376;28;20080;-71
2022/07/24 13:09:10;;;;;;;4.45;2.58;;;;;;;32.73;50.28;101488.38;10441148;28;20041;-71
2022/07/24 13:14:11;;;;;;;2.70;2.05;;;;;;;32.63;47.65;101475.66;10437666;28;20048;-73
2022/07/24 13:19:11;;;;;;;4.28;2.40;;;;;;;33.28;47.26;101457.09;10437491;28;20029;-72
2022/07/24 13:24:14;;;;;;;3.00;1.80;;;;;;;32.65;46.80;101441.88;10438368;28;20037;-71
2022/07/24 13:29:14;;;;;;;3.45;1.90;;;;;;;31.67;44.76;101435.41;10436859;28;20041;-68
2022/07/24 13:34:15;;;;;;;3.42;2.40;;;;;;;31.69;47.79;101455.75;10438649;28;20045;-68
2022/07/24 13:39:15;;;;;;;2.15;1.75;;;;;;;31.51;45.74;101442.09;10451795;28;20037;-68
2022/07/24 13:44:16;;;;;;;4.90;2.00;;;;;;;32.20;46.67;101449.50;10458857;28;20041;-68
2022/07/24 13:49:16;;;;;;;2.15;1.90;;;;;;;33.03;43.59;101405.50;10459300;28;20044;-68
2022/07/24 13:54:17;;;;;;;3.25;2.22;;;;;;;33.81;43.50;101412.94;10456096;28;20037;-68
2022/07/24 13:59:17;;;;;;;3.15;2.28;;;;;;;34.09;45.70;101420.78;10458495;28;20045;-69
2022/07/24 14:04:18;;;;;;;4.07;2.35;;;;;;;34.62;41.37;101387.00;10459197;28;20048;-66
2022/07/24 14:09:18;;;;;;;2.60;2.03;;;;;;;34.75;40.78;101383.38;10460676;28;20168;-67
2022/07/24 14:14:19;;;;;;;3.53;2.42;;;;;;;34.74;41.16;101384.56;10458769;28;20119;-67
2022/07/24 14:19:19;;;;;;;4.32;2.45;;;;;;;34.27;40.69;101371.47;10457559;28;20056;-68
2022/07/24 14:24:20;;;;;;;3.65;1.88;;;;;;;33.50;41.28;101378.09;10455723;28;20039;-68
2022/07/24 14:29:20;;;;;;;2.65;1.90;;;;;;;32.88;42.81;101383.81;10457014;28;20466;-68
2022/07/24 14:34:21;;;;;;;2.47;1.80;;;;;;;33.49;43.25;101375.63;10458118;28;20052;-68
2022/07/24 14:39:21;;;;;;;4.85;2.25;;;;;;;33.90;43.58;101384.84;10451031;28;20057;-68
2022/07/24 14:44:22;;;;;;;5.95;2.38;;;;;;;34.20;43.27;101374.31;10425929;28;20044;-67
2022/07/24 14:49:22;;;;;;;6.38;2.38;;;;;;;34.25;43.09;101366.13;10456126;28;20267;-67
2022/07/24 14:54:23;;;;;;;5.00;2.10;;;;;;;34.17;42.80;101359.63;10465180;28;20135;-67
2022/07/24 14:59:23;;;;;;;4.97;2.38;;;;;;;34.55;43.85;101368.63;10465976;28;20063;-63
2022/07/24 15:04:24;;;;;;;2.60;2.40;;;;;;;35.42;42.24;101334.19;10465154;28;20045;-67
2022/07/24 15:09:24;;;;;;;2.95;1.70;;;;;;;35.11;41.87;101336.72;10463525;28;20093;-68
2022/07/24 15:14:25;;;;;;;4.60;2.35;;;;;;;35.43;42.00;101324.34;10465691;28;20033;-67
2022/07/24 15:19:25;;;;;;;3.13;2.05;;;;;;;35.04;41.05;101322.41;10464314;28;20114;-67
2022/07/24 15:24:26;;;;;;;2.47;1.65;;;;;;;35.56;40.69;101328.41;10462379;28;20036;-67
2022/07/24 15:29:26;;;;;;;4.10;1.90;;;;;;;36.14;42.72;101337.53;10462267;28;20059;-71
2022/07/24 15:34:27;;;;;;;3.92;2.22;;;;;;;35.53;42.33;101324.28;10464192;28;20041;-66
2022/07/24 15:39:27;;;;;;;6.60;2.67;;;;;;;35.39;41.89;101312.94;10462510;28;20082;-73
2022/07/24 15:44:28;;;;;;;4.60;2.78;;;;;;;35.61;42.30;101312.81;10463598;28;20036;-71
2022/07/24 15:49:28;;;;;;;2.97;2.25;;;;;;;35.27;42.79;101317.06;10459737;28;20044;-68
2022/07/24 15:54:28;;;;;;;4.45;2.30;;;;;;;35.39;42.11;101301.50;10462627;28;20115;-68
2022/07/24 15:59:29;;;;;;;5.50;2.67;;;;;;;35.50;42.52;101296.50;10462637;28;20397;-69
2022/07/24 16:04:29;;;;;;;2.40;1.90;;;;;;;35.70;42.60;101287.41;10463019;28;20087;-69
2022/07/24 16:09:30;;;;;;;4.70;2.50;;;;;;;36.26;40.89;101282.56;10462535;28;20115;-69
2022/07/24 16:14:30;;;;;;;37.08;33.85;;;;;;;36.28;41.14;101274.34;10493789;28;20091;-69
2022/07/24 16:19:31;;;;;;;5.15;4.63;;;;;;;35.79;40.79;101264.06;10462913;28;20037;-70
2022/07/24 16:24:32;;;;;;;3.05;1.83;;;;;;;35.44;41.85;101275.28;10460333;28;20117;-69
2022/07/24 16:29:33;;;;;;;4.25;2.00;;;;;;;34.28;43.13;101273.09;10456099;28;20037;-68
2022/07/24 16:34:34;;;;;;;3.75;2.78;;;;;;;33.08;45.00;101258.91;10460965;28;20045;-68
2022/07/24 16:39:34;;;;;;;2.70;2.20;;;;;;;32.31;46.82;101272.97;10462310;28;20028;-69
2022/07/24 16:44:35;;;;;;;3.47;2.10;;;;;;;31.36;49.42;101269.56;10443059;28;20029;-67
2022/07/24 16:49:36;;;;;;;8.68;2.83;;;;;;;30.34;50.25;101268.47;10459531;28;20029;-68
2022/07/24 16:54:36;;;;;;;4.43;2.22;;;;;;;29.91;52.05;101265.69;10459010;28;20049;-70
2022/07/24 16:59:36;;;;;;;4.80;2.25;;;;;;;29.53;52.70;101266.53;10460544;28;20449;-68
2022/07/24 17:04:37;;;;;;;3.03;2.60;;;;;;;29.41;54.43;101270.34;10461690;28;20041;-68
2022/07/24 17:09:37;;;;;;;3.47;2.38;;;;;;;29.42;55.03;101265.53;10460773;28;20040;-67
2022/07/24 17:14:38;;;;;;;2.88;2.10;;;;;;;29.26;55.49;101265.59;10459895;28;20071;-67
2022/07/24 17:19:38;;;;;;;4.45;2.20;;;;;;;29.00;56.62;101272.69;10460407;28;20029;-71
2022/07/24 17:24:39;;;;;;;5.65;2.15;;;;;;;28.81;56.56;101270.66;10459965;28;20033;-69
2022/07/24 17:29:39;;;;;;;4.25;2.25;;;;;;;28.72;58.47;101267.22;10459887;28;20029;-69
2022/07/24 17:34:40;;;;;;;3.90;2.08;;;;;;;28.66;59.77;101280.84;10460861;28;20049;-68
2022/07/24 17:39:40;;;;;;;5.35;2.17;;;;;;;28.55;60.95;101279.78;10457950;28;20053;-69
2022/07/24 17:44:41;;;;;;;4.43;1.98;;;;;;;28.37;61.32;101274.44;10447473;28;20037;-68
2022/07/24 17:49:42;;;;;;;2.72;2.13;;;;;;;28.22;60.63;101266.81;10417208;28;20417;-68
2022/07/24 17:54:42;;;;;;;2.63;2.20;;;;;;;28.18;62.08;101265.88;10416275;28;20045;-68
2022/07/24 17:59:43;;;;;;;4.53;2.13;;;;;;;28.09;61.92;101262.41;10414367;28;20065;-67
2022/07/24 18:04:43;;;;;;;2.95;2.10;;;;;;;28.11;65.14;101283.50;10417441;28;20041;-66
2022/07/24 18:09:44;;;;;;;2.72;2.30;;;;;;;27.95;63.90;101275.00;10415638;28;20057;-67
2022/07/24 18:14:45;;;;;;;2.72;1.90;;;;;;;27.90;65.81;101280.91;10415309;28;20041;-69
2022/07/24 18:19:46;;;;;;;4.45;2.22;;;;;;;27.81;66.73;101268.94;10414574;28;20029;-68
2022/07/24 18:24:46;;;;;;;3.15;2.28;;;;;;;27.64;67.73;101274.91;10415938;28;20034;-69
2022/07/24 18:29:48;;;;;;;2.80;2.10;;;;;;;27.41;68.84;101272.69;10413590;28;20040;-67
2022/07/24 18:34:48;;;;;;;4.00;2.42;;;;;;;27.08;69.95;101259.56;10417231;28;20041;-68
2022/07/24 18:39:48;;;;;;;2.92;2.33;;;;;;;26.92;72.01;101272.81;10438582;28;20152;-68
2022/07/24 18:44:49;;;;;;;6.53;2.40;;;;;;;26.70;74.13;101274.94;10454507;28;20044;-61
2022/07/24 18:49:49;;;;;;;3.88;2.05;;;;;;;26.52;75.22;101276.34;10457218;28;21240;-67
2022/07/24 18:54:50;;;;;;;3.58;2.28;;;;;;;26.35;77.30;101266.94;10457132;28;20056;-68
2022/07/24 18:59:50;;;;;;;2.60;2.28;;;;;;;26.22;80.57;101268.09;10455961;28;20045;-67
2022/07/24 19:04:51;;;;;;;6.25;2.28;;;;;;;26.04;82.25;101273.13;10458293;28;20497;-68
2022/07/24 19:09:51;;;;;;;3.90;2.35;;;;;;;25.81;85.28;101269.88;10457061;28;20482;-68
2022/07/24 19:14:52;;;;;;;4.22;2.72;;;;;;;25.56;87.40;101269.00;10429429;28;20053;-69
2022/07/24 19:19:53;;;;;;;2.58;2.35;;;;;;;25.29;90.44;101267.59;10436482;28;20060;-68
2022/07/24 19:24:53;;;;;;;3.78;2.63;;;;;;;25.00;92.22;101269.28;10430723;28;20042;-68
2022/07/24 19:29:54;;;;;;;3.15;2.50;;;;;;;24.75;96.78;101262.69;10436072;28;20045;-68
2022/07/24 19:34:54;;;;;;;4.40;2.35;;;;;;;24.48;100.00;101267.63;10437473;28;20052;-68
2022/07/24 19:39:55;;;;;;;3.28;2.35;;;;;;;24.28;100.00;101272.00;10450176;28;20056;-68
2022/07/24 19:44:55;;;;;;;5.10;2.72;;;;;;;24.07;100.00;101271.13;10458918;28;20036;-68
2022/07/24 19:49:57;;;;;;;5.22;2.50;;;;;;;23.91;100.00;101276.47;10459246;28;20049;-68
2022/07/24 19:54:57;;;;;;;2.88;2.20;;;;;;;23.73;100.00;101267.19;10452895;28;20045;-68
2022/07/24 19:59:58;;;;;;;4.72;2.35;;;;;;;23.57;100.00;101264.94;10460091;28;20068;-67
2022/07/24 20:04:58;;;;;;;3.33;2.25;;;;;;;23.41;100.00;101258.19;10456384;28;20044;-68
2022/07/24 20:09:59;;;;;;;4.18;2.45;;;;;;;23.24;100.00;101250.59;10462091;28;20041;-68
2022/07/24 20:14:59;;;;;;;4.05;2.78;;;;;;;23.09;100.00;101248.28;10462302;28;20582;-68
2022/07/24 20:20:00;;;;;;;3.05;2.08;;;;;;;22.95;100.00;101246.44;10453742;28;20032;-69
2022/07/24 20:25:00;;;;;;;2.80;2.30;;;;;;;22.83;100.00;101245.44;10459997;28;20056;-69
2022/07/24 20:30:01;;;;;;;2.55;2.00;;;;;;;22.71;100.00;101248.88;10459462;28;20041;-66
2022/07/24 20:35:01;;;;;;;3.70;2.20;;;;;;;22.56;100.00;101239.78;10461976;28;20104;-68
2022/07/24 20:40:03;;;;;;;2.60;2.30;;;;;;;22.47;100.00;101241.75;10460384;28;20037;-68
2022/07/24 20:45:04;;;;;;;2.58;1.92;;;;;;;22.38;100.00;101238.06;10459499;28;20045;-68
2022/07/24 20:50:05;;;;;;;4.50;1.90;;;;;;;22.26;100.00;101230.31;10459732;28;20029;-69
2022/07/24 20:55:06;;;;;;;3.22;2.30;;;;;;;22.21;100.00;101233.22;10458329;28;20033;-69
2022/07/24 21:00:07;;;;;;;4.40;2.35;;;;;;;22.04;100.00;101207.94;10442860;28;20049;-68
2022/07/24 21:05:07;;;;;;;3.13;2.38;;;;;;;21.98;100.00;101220.44;10455651;28;20231;-68
2022/07/24 21:10:09;;;;;;;3.10;2.17;;;;;;;21.84;100.00;101212.13;10456820;28;20033;-69
2022/07/24 21:15:10;;;;;;;5.32;2.40;;;;;;;21.48;100.00;101168.28;10458303;28;20066;-69
2022/07/24 21:20:14;;;;;;;6.15;2.03;;;;;;;21.65;100.00;101201.16;10459167;28;20033;-69
2022/07/24 21:25:14;;;;;;;4.32;2.80;;;;;;;21.52;100.00;101200.91;10460088;28;20025;-68
2022/07/24 21:30:15;;;;;;;2.65;2.00;;;;;;;21.41;100.00;101187.47;10460860;28;20032;-68
2022/07/24 21:35:15;;;;;;;3.03;2.05;;;;;;;21.31;100.00;101186.59;10459909;28;20052;-69
2022/07/24 21:40:15;;;;;;;6.03;2.47;;;;;;;21.21;100.00;101177.59;10458989;28;20033;-69
2022/07/24 21:45:16;;;;;;;4.72;2.17;;;;;;;21.04;100.00;101158.72;10458544;28;20094;-69
2022/07/24 21:50:16;;;;;;;3.00;2.08;;;;;;;21.12;100.00;101172.78;10458561;28;20744;-68
2022/07/24 21:55:17;;;;;;;5.22;2.30;;;;;;;21.10;100.00;101163.88;10458241;28;20045;-68
2022/07/24 22:00:17;;;;;;;3.20;1.92;;;;;;;21.04;100.00;101165.13;10459333;28;20098;-68
2022/07/24 22:05:18;;;;;;;3.17;2.20;;;;;;;20.91;100.00;101152.03;10458905;28;20090;-69
2022/07/24 22:10:19;;;;;;;4.22;2.45;;;;;;;20.87;100.00;101156.63;10458721;28;20382;-69
2022/07/24 22:15:20;;;;;;;4.05;1.90;;;;;;;20.78;100.00;101150.97;10459056;28;20041;-69
2022/07/24 22:20:20;;;;;;;2.45;2.10;;;;;;;20.66;100.00;101151.53;10455059;28;20119;-69
2022/07/24 22:25:21;;;;;;;3.80;2.33;;;;;;;20.50;100.00;101141.78;10458573;28;20044;-68
2022/07/24 22:30:21;;;;;;;2.40;2.15;;;;;;;20.53;100.00;101160.75;10457086;28;20071;-69
2022/07/24 22:35:22;;;;;;;4.57;2.25;;;;;;;20.44;100.00;101143.06;10457262;28;20041;-68
2022/07/24 22:40:23;;;;;;;4.78;2.20;;;;;;;20.52;100.00;101153.50;10458435;28;20033;-68
2022/07/24 22:45:23;;;;;;;4.15;2.20;;;;;;;20.32;100.00;101099.72;10457230;28;20037;-68
2022/07/24 22:50:24;;;;;;;2.95;2.03;;;;;;;20.66;100.00;101137.53;10455340;28;20048;-69
2022/07/24 22:55:29;;;;;;;4.85;2.30;;;;;;;20.71;100.00;101140.22;10439023;28;20069;-67
2022/07/24 23:00:29;;;;;;;4.80;2.40;;;;;;;20.73;100.00;101132.34;10463095;28;20048;-69